Time;durP1;ratioP1;P1;durP2;ratioP2;P2;SDS_P1;SDS_P2;PMS_P1;PMS_P2;Temp;Humidity;BMP_temperature;BMP_pressure;BME280_temperature;BME280_humidity;BME280_pressure;Samples;Min_cycle;Max_cycle;Signal;HPM_P1;HPM_P2
2022/12/25 00:01:17;;;;;;;10.03;5.30;;;5.10;84.90;;;;;;5025499;28;20430;-62
2022/12/25 00:03:43;;;;;;;7.97;4.60;;;5.10;84.70;;;;;;5064699;28;20214;-62
2022/12/25 00:06:09;;;;;;;7.47;4.60;;;5.10;84.60;;;;;;5059225;28;20437;-62
2022/12/25 00:08:35;;;;;;;8.67;5.30;;;5.10;84.50;;;;;;5053185;28;20189;-62
2022/12/25 00:11:05;;;;;;;8.87;6.10;;;5.10;84.70;;;;;;5050766;28;20215;-62
2022/12/25 00:13:31;;;;;;;8.67;5.70;;;5.00;84.50;;;;;;5054670;28;20583;-62
2022/12/25 00:15:57;;;;;;;11.97;7.00;;;5.00;84.70;;;;;;5052807;28;20428;-62
2022/12/25 00:18:23;;;;;;;8.50;5.83;;;5.00;84.40;;;;;;5069913;28;20190;-62
2022/12/25 00:21:04;;;;;;;9.87;5.73;;;5.00;84.70;;;;;;5054061;28;20187;-62
2022/12/25 00:23:30;;;;;;;8.47;5.67;;;5.00;84.60;;;;;;5084924;28;20439;-62
2022/12/25 00:25:56;;;;;;;7.97;5.03;;;5.10;84.70;;;;;;5036691;28;20436;-62
2022/12/25 00:28:23;;;;;;;6.87;4.43;;;5.00;84.60;;;;;;5054455;28;20421;-63
2022/12/25 00:30:49;;;;;;;5.10;3.17;;;5.10;84.70;;;;;;5085124;28;20435;-63
2022/12/25 00:33:15;;;;;;;5.50;3.70;;;5.10;84.70;;;;;;5049442;28;20435;-63
2022/12/25 00:35:41;;;;;;;5.73;3.20;;;5.10;85.00;;;;;;5052930;28;20493;-63
2022/12/25 00:38:07;;;;;;;7.47;3.87;;;5.10;85.00;;;;;;5019579;28;20445;-62
2022/12/25 00:40:33;;;;;;;5.20;3.03;;;5.10;84.80;;;;;;5053355;28;20744;-62
2022/12/25 00:42:59;;;;;;;8.27;4.00;;;5.10;85.10;;;;;;5036982;28;20202;-62
2022/12/25 00:45:24;;;;;;;8.30;5.53;;;5.10;84.90;;;;;;5050259;28;20225;-62
2022/12/25 00:47:50;;;;;;;5.40;4.63;;;5.10;84.90;;;;;;5071317;28;20256;-62
2022/12/25 00:50:17;;;;;;;7.93;4.80;;;5.00;85.40;;;;;;5045393;28;20195;-62
2022/12/25 00:52:43;;;;;;;7.60;4.40;;;5.00;85.40;;;;;;5068160;28;20249;-62
2022/12/25 00:55:08;;;;;;;5.87;3.90;;;5.00;85.30;;;;;;5037253;28;20440;-62
2022/12/25 00:57:34;;;;;;;5.43;4.30;;;5.10;85.20;;;;;;5033344;28;20621;-62
2022/12/25 01:00:00;;;;;;;4.80;3.80;;;5.10;85.20;;;;;;5034364;28;20237;-62
2022/12/25 01:02:25;;;;;;;7.80;3.23;;;5.10;85.10;;;;;;5053056;28;20202;-62
2022/12/25 01:04:54;;;;;;;4.37;3.10;;;5.10;85.20;;;;;;5028161;28;20218;-62
2022/12/25 01:07:21;;;;;;;5.07;2.90;;;5.10;85.20;;;;;;5077758;28;20182;-62
2022/12/25 01:12:34;;;;;;;3.47;2.83;;;5.10;85.10;;;;;;5053603;28;20524;-62
2022/12/25 01:15:00;;;;;;;3.60;2.70;;;5.10;85.00;;;;;;5051831;28;20912;-62
2022/12/25 01:17:26;;;;;;;5.80;3.50;;;5.10;85.00;;;;;;5068936;28;20452;-62
2022/12/25 01:19:51;;;;;;;14.57;5.90;;;5.20;85.00;;;;;;5034998;28;20202;-62
2022/12/25 01:22:17;;;;;;;11.90;5.70;;;5.20;84.90;;;;;;5047792;28;20191;-62
2022/12/25 01:24:43;;;;;;;8.60;3.70;;;5.10;84.90;;;;;;5043526;28;20233;-63
2022/12/25 01:27:10;;;;;;;6.33;3.10;;;5.10;85.00;;;;;;5040967;28;20190;-63
2022/12/25 01:29:36;;;;;;;5.97;3.53;;;5.10;84.90;;;;;;5030633;28;20433;-63
2022/12/25 01:32:01;;;;;;;4.93;3.43;;;5.10;84.70;;;;;;5032694;28;20429;-63
2022/12/25 01:34:27;;;;;;;4.77;3.27;;;5.10;84.70;;;;;;5053519;28;20202;-63
2022/12/25 01:36:53;;;;;;;7.23;3.97;;;5.10;85.10;;;;;;5049718;28;20206;-63
2022/12/25 01:39:18;;;;;;;6.93;4.07;;;5.10;85.00;;;;;;5037000;28;20190;-62
2022/12/25 01:41:44;;;;;;;10.10;3.97;;;5.10;85.10;;;;;;5036257;28;20336;-62
2022/12/25 01:44:13;;;;;;;6.47;3.70;;;5.10;85.10;;;;;;5049211;28;20219;-62
2022/12/25 01:46:39;;;;;;;7.63;4.03;;;5.00;85.20;;;;;;5048351;28;20245;-62
2022/12/25 01:49:21;;;;;;;8.00;3.73;;;5.00;85.20;;;;;;5052903;28;20432;-62
2022/12/25 01:51:52;;;;;;;4.63;3.50;;;5.10;85.20;;;;;;5049217;28;20451;-62
2022/12/25 01:54:24;;;;;;;6.20;3.80;;;5.10;85.00;;;;;;5052835;28;20423;-62
2022/12/25 01:56:52;;;;;;;8.00;4.40;;;5.10;85.10;;;;;;5085167;28;20464;-62
2022/12/25 01:59:21;;;;;;;9.53;4.57;;;5.10;85.20;;;;;;5052612;28;20453;-62
2022/12/25 02:01:47;;;;;;;5.73;3.63;;;5.00;85.50;;;;;;5082897;28;20437;-62
2022/12/25 02:04:41;;;;;;;5.87;3.60;;;5.00;85.40;;;;;;5049792;28;20469;-62
2022/12/25 02:07:16;;;;;;;6.67;4.37;;;5.00;85.40;;;;;;5051685;28;20436;-62
2022/12/25 02:09:43;;;;;;;4.57;3.57;;;5.00;85.20;;;;;;5051663;28;20471;-62
2022/12/25 02:12:29;;;;;;;5.63;3.40;;;5.10;85.00;;;;;;5033669;28;20433;-62
2022/12/25 02:14:58;;;;;;;5.60;2.97;;;5.00;85.30;;;;;;5052625;28;20440;-62
2022/12/25 02:17:53;;;;;;;5.77;3.50;;;5.00;85.40;;;;;;5052753;28;20425;-62
2022/12/25 02:20:34;;;;;;;4.83;2.90;;;5.00;85.40;;;;;;5054296;28;20441;-62
2022/12/25 02:23:14;;;;;;;3.17;2.83;;;5.00;85.30;;;;;;5082703;28;20447;-62
2022/12/25 02:25:40;;;;;;;6.30;3.30;;;5.00;85.40;;;;;;5051604;28;21010;-62
2022/12/25 02:28:41;;;;;;;5.47;3.23;;;5.00;85.50;;;;;;5052338;28;20440;-63
2022/12/25 02:31:12;;;;;;;6.97;3.07;;;5.00;85.60;;;;;;5025212;28;20191;-62
2022/12/25 02:34:04;;;;;;;4.53;3.10;;;5.10;85.50;;;;;;5046820;28;20428;-62
2022/12/25 02:36:52;;;;;;;5.90;3.10;;;5.10;85.10;;;;;;5046831;28;20421;-62
2022/12/25 02:39:56;;;;;;;4.70;3.07;;;5.00;85.50;;;;;;5050784;28;20424;-62
2022/12/25 03:08:28;;;;;;;6.40;2.90;;;5.30;84.90;;;;;;5091355;28;20456;-62
2022/12/25 03:16:49;;;;;;;4.70;3.23;;;5.20;84.70;;;;;;5091678;28;20479;-62
2022/12/25 03:16:49;;;;;;;4.00;3.20;;;5.20;84.70;;;;;;5094651;28;20443;-62
2022/12/25 03:27:31;;;;;;;4.87;3.33;;;5.10;84.50;;;;;;5091455;28;20954;-63
2022/12/25 03:33:04;;;;;;;3.30;2.70;;;5.00;84.50;;;;;;5094344;28;20466;-62
2022/12/25 03:35:43;;;;;;;4.00;2.87;;;4.90;84.60;;;;;;5098814;28;20442;-62
2022/12/25 03:42:30;;;;;;;3.47;2.70;;;4.80;84.40;;;;;;5096187;28;20478;-63
2022/12/25 04:37:10;;;;;;;5.30;2.97;;;4.00;85.80;;;;;;5069248;28;20475;-63
2022/12/25 04:39:36;;;;;;;4.47;2.87;;;4.00;85.90;;;;;;5062422;28;20454;-63
2022/12/25 04:42:02;;;;;;;7.33;3.23;;;4.00;86.00;;;;;;5066796;28;20209;-63
2022/12/25 04:44:27;;;;;;;5.13;3.37;;;4.00;86.30;;;;;;5058629;28;20191;-63
2022/12/25 04:46:53;;;;;;;5.90;3.43;;;4.00;86.60;;;;;;5075200;28;20184;-63
2022/12/25 04:49:19;;;;;;;5.20;3.00;;;4.00;86.50;;;;;;5077682;28;20191;-63
2022/12/25 04:51:44;;;;;;;3.37;2.87;;;4.00;86.10;;;;;;5060971;28;20220;-63
2022/12/25 04:54:10;;;;;;;5.67;2.93;;;4.00;85.90;;;;;;5067414;28;20189;-63
2022/12/25 04:56:36;;;;;;;5.37;3.27;;;4.00;85.90;;;;;;5058429;28;20247;-63
2022/12/25 04:59:01;;;;;;;3.23;2.57;;;4.00;86.30;;;;;;5055977;28;20213;-63
2022/12/25 05:01:27;;;;;;;4.47;3.10;;;4.00;86.50;;;;;;5048678;28;20249;-63
2022/12/25 05:03:53;;;;;;;6.33;3.80;;;4.00;86.50;;;;;;5071231;28;20185;-63
2022/12/25 05:06:19;;;;;;;6.17;3.27;;;3.90;86.50;;;;;;5060436;28;20707;-63
2022/12/25 05:08:44;;;;;;;3.10;2.67;;;3.90;86.30;;;;;;5068883;28;20193;-63
2022/12/25 05:11:13;;;;;;;4.67;2.83;;;3.90;86.20;;;;;;5058340;28;20477;-63
2022/12/25 05:13:39;;;;;;;6.90;2.80;;;3.90;86.10;;;;;;5068590;28;20201;-63
2022/12/25 05:16:17;;;;;;;7.33;3.00;;;3.90;85.90;;;;;;5059370;28;20436;-63
2022/12/25 05:18:43;;;;;;;3.60;2.50;;;3.90;86.00;;;;;;5054889;28;20447;-63
2022/12/25 05:21:11;;;;;;;4.47;3.20;;;3.80;85.90;;;;;;5066016;28;20474;-63
2022/12/25 05:23:37;;;;;;;3.47;2.50;;;3.70;86.00;;;;;;5072371;28;20196;-63
2022/12/25 05:26:06;;;;;;;5.20;3.00;;;3.60;86.00;;;;;;5073313;28;20424;-63
2022/12/25 05:28:35;;;;;;;5.63;2.80;;;3.60;86.10;;;;;;5076092;28;20185;-63
2022/12/25 05:31:01;;;;;;;4.10;3.10;;;3.60;86.10;;;;;;5074370;28;20443;-63
2022/12/25 05:33:27;;;;;;;5.47;2.60;;;3.50;86.10;;;;;;5061174;28;20443;-63
2022/12/25 05:35:53;;;;;;;5.17;2.90;;;3.50;86.30;;;;;;5068570;28;20431;-63
2022/12/25 05:38:18;;;;;;;4.87;2.70;;;3.50;86.30;;;;;;5062327;28;20190;-63
2022/12/25 05:40:44;;;;;;;2.70;2.43;;;3.50;86.60;;;;;;5058423;28;20216;-63
2022/12/25 05:43:10;;;;;;;3.23;2.60;;;3.40;86.60;;;;;;5060755;28;20181;-63
2022/12/25 05:45:35;;;;;;;6.43;2.97;;;3.40;86.50;;;;;;5072752;28;20248;-63
2022/12/25 05:48:01;;;;;;;5.73;2.90;;;3.30;86.40;;;;;;5043679;28;20189;-63
2022/12/25 05:50:27;;;;;;;3.53;2.90;;;3.30;86.60;;;;;;5073375;28;20197;-63
2022/12/25 05:52:53;;;;;;;4.60;3.03;;;3.30;86.30;;;;;;5058829;28;20189;-63
2022/12/25 05:55:18;;;;;;;4.60;2.57;;;3.30;86.20;;;;;;5057025;28;20185;-63
2022/12/25 05:57:44;;;;;;;6.20;2.93;;;3.20;86.20;;;;;;5073577;28;20181;-63
2022/12/25 06:00:10;;;;;;;3.97;2.43;;;3.10;86.30;;;;;;5058524;28;20200;-63
2022/12/25 06:02:36;;;;;;;5.33;2.80;;;3.10;86.10;;;;;;5055978;28;20238;-63
2022/12/25 06:05:03;;;;;;;5.13;2.77;;;3.10;86.50;;;;;;5061752;28;20429;-63
2022/12/25 06:07:29;;;;;;;5.40;2.63;;;3.10;86.30;;;;;;5049003;28;20190;-63
2022/12/25 06:09:54;;;;;;;6.17;3.10;;;3.10;86.60;;;;;;5046426;28;20444;-63
2022/12/25 06:12:20;;;;;;;4.63;2.60;;;3.10;86.80;;;;;;5048536;28;20268;-64
2022/12/25 06:14:46;;;;;;;4.63;2.70;;;3.10;86.90;;;;;;5054024;28;20193;-63
2022/12/25 06:17:11;;;;;;;7.03;3.47;;;3.10;87.10;;;;;;5051067;28;20199;-63
2022/12/25 06:19:37;;;;;;;5.37;3.03;;;3.00;87.10;;;;;;5058702;28;20212;-63
2022/12/25 06:22:03;;;;;;;4.13;2.60;;;3.00;87.10;;;;;;5069713;28;20225;-63
2022/12/25 06:24:28;;;;;;;4.27;2.73;;;3.10;87.10;;;;;;5046446;28;20194;-63
2022/12/25 06:26:54;;;;;;;2.97;2.63;;;3.10;87.00;;;;;;5053445;28;20194;-63
2022/12/25 06:29:20;;;;;;;6.30;2.97;;;3.00;87.20;;;;;;5055824;28;20275;-63
2022/12/25 06:31:46;;;;;;;4.50;2.77;;;3.10;87.10;;;;;;5042450;28;20189;-63
2022/12/25 06:34:15;;;;;;;5.50;2.90;;;3.00;87.20;;;;;;5045016;28;20193;-63
2022/12/25 06:36:41;;;;;;;8.40;3.27;;;3.00;87.10;;;;;;5052371;28;20212;-63
2022/12/25 06:39:06;;;;;;;5.33;3.10;;;3.00;87.00;;;;;;5064243;28;20437;-63
2022/12/25 06:41:32;;;;;;;6.20;2.90;;;2.90;86.80;;;;;;5044565;28;20210;-63
2022/12/25 06:44:00;;;;;;;4.33;2.90;;;2.90;87.00;;;;;;5043915;28;20190;-64
2022/12/25 06:46:28;;;;;;;3.90;2.90;;;2.80;87.00;;;;;;5065626;28;20186;-64
2022/12/25 06:48:54;;;;;;;4.23;3.43;;;2.80;86.80;;;;;;5071813;28;20849;-64
2022/12/25 06:51:25;;;;;;;5.73;3.20;;;2.80;87.10;;;;;;5059714;28;20440;-64
2022/12/25 06:53:52;;;;;;;5.77;3.60;;;2.80;87.00;;;;;;5061857;28;20472;-64
2022/12/25 06:56:22;;;;;;;3.13;2.40;;;2.90;87.00;;;;;;5062540;28;20439;-64
2022/12/25 06:58:54;;;;;;;6.07;3.10;;;2.80;87.30;;;;;;5064170;28;20568;-64
2022/12/25 07:01:21;;;;;;;4.87;3.27;;;2.90;87.70;;;;;;5075512;28;20480;-65
2022/12/25 07:03:50;;;;;;;4.23;3.53;;;3.00;87.90;;;;;;5059430;28;20938;-64
2022/12/25 07:06:16;;;;;;;5.30;3.00;;;3.10;87.90;;;;;;5067161;28;20458;-64
2022/12/25 07:08:41;;;;;;;4.00;3.00;;;3.10;88.00;;;;;;5056475;28;21145;-64
2022/12/25 07:11:07;;;;;;;4.03;3.20;;;3.10;87.80;;;;;;5055580;28;20224;-65
2022/12/25 07:13:34;;;;;;;4.60;3.30;;;3.10;87.90;;;;;;5041866;28;20204;-64
2022/12/25 07:16:01;;;;;;;5.17;3.40;;;3.20;87.50;;;;;;5066307;28;20198;-65
2022/12/25 07:18:28;;;;;;;7.20;4.00;;;3.30;87.20;;;;;;5066962;28;20448;-64
2022/12/25 07:20:54;;;;;;;4.60;3.73;;;3.30;87.10;;;;;;5072786;28;20475;-64
2022/12/25 07:23:23;;;;;;;6.30;4.00;;;3.30;87.60;;;;;;5054609;28;20443;-64
2022/12/25 07:25:57;;;;;;;7.57;3.53;;;3.30;87.50;;;;;;5079524;28;20435;-64
2022/12/25 07:28:23;;;;;;;4.60;2.97;;;3.40;87.50;;;;;;5047834;28;20444;-64
2022/12/25 07:30:49;;;;;;;5.70;3.50;;;3.50;87.30;;;;;;5070168;28;20432;-64
2022/12/25 07:33:15;;;;;;;5.67;3.43;;;3.50;87.40;;;;;;5059224;28;20497;-64
2022/12/25 07:35:41;;;;;;;5.00;3.00;;;3.60;87.20;;;;;;5040689;28;20198;-64
2022/12/25 07:38:07;;;;;;;4.47;3.20;;;3.60;87.30;;;;;;5058112;28;20258;-64
2022/12/25 07:40:32;;;;;;;3.40;2.80;;;3.70;87.60;;;;;;5080996;28;20181;-63
2022/12/25 07:42:58;;;;;;;4.40;2.87;;;3.80;87.60;;;;;;5043843;28;20194;-63
2022/12/25 07:45:24;;;;;;;5.70;3.10;;;3.90;87.80;;;;;;5057226;28;20186;-64
2022/12/25 07:47:49;;;;;;;7.53;3.37;;;4.00;87.90;;;;;;5066408;28;20193;-63
2022/12/25 07:50:15;;;;;;;4.73;3.10;;;4.00;88.00;;;;;;5047091;28;20277;-63
2022/12/25 07:52:42;;;;;;;4.80;3.10;;;4.00;87.80;;;;;;5049986;28;20288;-63
2022/12/25 07:55:08;;;;;;;3.60;2.70;;;4.10;87.80;;;;;;5063418;28;20276;-64
2022/12/25 07:57:35;;;;;;;4.40;2.67;;;4.20;87.80;;;;;;5063409;28;20492;-65
2022/12/25 08:00:02;;;;;;;3.13;2.13;;;4.20;87.50;;;;;;5055896;28;20471;-66
2022/12/25 08:02:28;;;;;;;5.30;3.27;;;4.30;87.40;;;;;;5064927;28;20494;-66
2022/12/25 08:04:54;;;;;;;4.87;3.10;;;4.30;87.40;;;;;;5065097;28;20424;-66
2022/12/25 08:07:21;;;;;;;5.93;3.70;;;4.40;87.30;;;;;;5061804;28;20193;-63
2022/12/25 08:09:47;;;;;;;8.33;3.87;;;4.50;87.30;;;;;;5064200;28;20434;-65
2022/12/25 08:12:12;;;;;;;4.83;3.33;;;4.50;87.50;;;;;;5061888;28;20443;-64
2022/12/25 08:14:38;;;;;;;5.43;3.40;;;4.50;87.40;;;;;;5048087;28;20206;-64
2022/12/25 08:17:04;;;;;;;4.73;3.13;;;4.50;87.40;;;;;;5060137;28;20217;-65
2022/12/25 08:19:29;;;;;;;4.63;2.97;;;4.60;87.50;;;;;;5073438;28;20200;-64
2022/12/25 08:21:55;;;;;;;3.90;3.20;;;4.70;87.30;;;;;;5054062;28;20205;-64
2022/12/25 08:24:21;;;;;;;4.60;3.10;;;4.70;87.20;;;;;;5053260;28;20198;-64
2022/12/25 08:26:47;;;;;;;4.57;2.97;;;4.70;87.50;;;;;;5071836;28;20209;-64
2022/12/25 08:29:13;;;;;;;3.70;2.80;;;4.80;87.60;;;;;;5061208;28;20182;-64
2022/12/25 08:31:42;;;;;;;4.40;3.10;;;4.90;87.50;;;;;;5057923;28;20439;-63
2022/12/25 08:34:07;;;;;;;3.87;2.57;;;5.00;87.50;;;;;;5058205;28;20421;-63
2022/12/25 08:36:33;;;;;;;3.33;2.53;;;5.00;87.40;;;;;;5057937;28;20435;-64
2022/12/25 08:38:59;;;;;;;5.30;2.90;;;5.10;87.30;;;;;;5068083;28;20249;-63
2022/12/25 08:41:25;;;;;;;4.20;3.17;;;5.20;87.00;;;;;;5056343;28;20217;-63
2022/12/25 08:43:51;;;;;;;6.30;3.27;;;5.30;86.80;;;;;;5053169;28;20201;-62
2022/12/25 08:46:17;;;;;;;5.37;3.40;;;5.30;86.90;;;;;;5051980;28;20499;-63
2022/12/25 08:48:44;;;;;;;6.77;4.17;;;5.30;86.90;;;;;;5066833;28;20190;-63
2022/12/25 08:51:14;;;;;;;6.77;4.70;;;5.40;86.50;;;;;;5059287;28;20190;-64
2022/12/25 08:53:45;;;;;;;3.77;3.40;;;5.50;86.30;;;;;;5056625;28;20424;-64
2022/12/25 08:56:11;;;;;;;5.57;3.33;;;5.50;86.30;;;;;;5069991;28;20436;-64
2022/12/25 08:58:37;;;;;;;3.70;3.23;;;5.60;86.00;;;;;;5058237;28;20424;-64
2022/12/25 09:01:03;;;;;;;6.60;4.00;;;5.60;86.10;;;;;;5052730;28;20493;-64
2022/12/25 09:03:32;;;;;;;4.63;3.57;;;5.70;85.90;;;;;;5056588;28;20197;-64
2022/12/25 09:06:06;;;;;;;5.17;2.90;;;5.80;85.30;;;;;;5055041;28;20441;-64
2022/12/25 09:08:32;;;;;;;4.40;3.07;;;5.90;85.30;;;;;;5067054;28;20455;-64
2022/12/25 09:11:09;;;;;;;3.70;2.50;;;6.00;85.20;;;;;;5054808;28;20452;-64
2022/12/25 09:13:35;;;;;;;3.07;2.47;;;6.10;84.50;;;;;;5089979;28;20431;-64
2022/12/25 09:16:12;;;;;;;3.20;2.70;;;6.20;84.20;;;;;;5065113;28;20444;-64
2022/12/25 09:18:38;;;;;;;6.37;3.40;;;6.30;83.70;;;;;;5060713;28;20426;-63
2022/12/25 09:21:06;;;;;;;4.33;2.90;;;6.40;82.30;;;;;;5062374;28;20492;-63
2022/12/25 09:23:33;;;;;;;4.00;3.20;;;6.50;82.30;;;;;;5070803;28;20540;-63
2022/12/25 09:25:59;;;;;;;5.03;3.33;;;6.60;81.90;;;;;;5049009;28;20444;-63
2022/12/25 09:28:25;;;;;;;5.33;3.40;;;6.60;81.30;;;;;;5071340;28;20428;-63
2022/12/25 09:30:52;;;;;;;4.93;3.27;;;6.60;81.10;;;;;;5054941;28;20459;-63
2022/12/25 09:33:18;;;;;;;4.30;3.40;;;6.60;79.70;;;;;;5053178;28;20204;-63
2022/12/25 09:35:55;;;;;;;5.77;3.27;;;6.60;79.10;;;;;;5050266;28;20446;-63
2022/12/25 09:38:21;;;;;;;5.47;3.53;;;6.70;79.00;;;;;;5070658;28;20443;-63
2022/12/25 09:40:48;;;;;;;4.40;3.20;;;6.70;78.90;;;;;;5065909;28;20481;-63
2022/12/25 09:43:19;;;;;;;4.63;3.00;;;6.70;78.20;;;;;;5070771;28;20194;-64
2022/12/25 09:45:45;;;;;;;4.83;3.63;;;6.80;77.90;;;;;;5069111;28;20208;-63
2022/12/25 09:48:15;;;;;;;5.97;3.20;;;6.80;77.40;;;;;;5052481;28;20479;-64
2022/12/25 09:51:04;;;;;;;7.47;3.80;;;6.80;77.90;;;;;;5050395;28;20190;-64
2022/12/25 09:53:40;;;;;;;6.07;3.70;;;6.90;74.90;;;;;;5071326;28;20454;-64
2022/12/25 09:56:26;;;;;;;6.43;4.00;;;7.00;74.40;;;;;;5065389;28;20417;-62
2022/12/25 09:58:52;;;;;;;6.10;3.50;;;7.00;75.40;;;;;;5047169;28;20969;-63
2022/12/25 10:01:49;;;;;;;4.33;3.10;;;7.00;75.00;;;;;;5067762;28;20522;-63
2022/12/25 10:04:29;;;;;;;5.47;3.90;;;7.10;75.00;;;;;;5058351;28;20439;-64
2022/12/25 10:07:13;;;;;;;4.57;3.37;;;7.10;75.30;;;;;;5059388;28;20482;-64
2022/12/25 10:09:52;;;;;;;4.90;3.60;;;7.10;75.20;;;;;;5082037;28;20448;-64
2022/12/25 10:12:26;;;;;;;6.70;4.20;;;7.10;75.10;;;;;;5058684;28;20443;-64
2022/12/25 10:15:13;;;;;;;7.80;4.33;;;7.10;75.30;;;;;;5066856;28;20511;-64
2022/12/25 10:18:18;;;;;;;4.93;3.47;;;7.10;75.60;;;;;;5062315;28;20451;-64
2022/12/25 10:20:51;;;;;;;4.87;2.87;;;7.10;75.80;;;;;;5067416;28;20434;-63
2022/12/25 10:23:24;;;;;;;7.17;3.37;;;7.20;75.20;;;;;;5060826;28;20435;-63
2022/12/25 10:25:52;;;;;;;5.57;3.60;;;7.20;74.30;;;;;;5086051;28;20431;-63
2022/12/25 10:28:38;;;;;;;7.23;3.73;;;7.20;73.90;;;;;;5070871;28;20430;-64
2022/12/25 10:31:16;;;;;;;8.77;4.10;;;7.20;73.80;;;;;;5068561;28;20421;-63
2022/12/25 10:33:42;;;;;;;4.13;3.23;;;7.40;73.00;;;;;;5051714;28;20508;-64
2022/12/25 10:36:08;;;;;;;5.73;3.70;;;7.40;73.10;;;;;;5056176;28;20582;-64
2022/12/25 10:38:35;;;;;;;7.20;4.07;;;7.40;72.70;;;;;;5044383;28;20190;-64
2022/12/25 10:41:34;;;;;;;12.10;4.60;;;7.50;71.50;;;;;;5057315;28;20554;-64
2022/12/25 10:44:12;;;;;;;4.80;3.40;;;7.60;71.90;;;;;;5060975;28;20192;-64
2022/12/25 10:46:39;;;;;;;5.10;3.67;;;7.60;72.30;;;;;;5050860;28;20186;-64
2022/12/25 10:49:13;;;;;;;5.17;3.70;;;7.60;72.40;;;;;;5046150;28;20182;-64
2022/12/25 10:51:39;;;;;;;8.07;3.63;;;7.80;71.50;;;;;;5064215;28;20440;-63
2022/12/25 10:54:24;;;;;;;4.93;2.77;;;7.80;71.30;;;;;;5053967;28;20451;-63
2022/12/25 10:57:02;;;;;;;5.77;3.40;;;7.90;71.20;;;;;;5069741;28;20246;-64
2022/12/25 10:59:54;;;;;;;4.40;3.17;;;8.00;71.30;;;;;;5083643;28;20560;-64
2022/12/25 11:02:20;;;;;;;5.60;3.07;;;8.00;71.20;;;;;;5066981;28;20484;-64
2022/12/25 11:04:46;;;;;;;5.53;3.50;;;8.10;70.90;;;;;;5059946;28;20285;-63
2022/12/25 11:07:18;;;;;;;4.17;3.40;;;8.20;69.40;;;;;;5042560;28;20193;-64
2022/12/25 11:09:55;;;;;;;4.00;2.93;;;8.40;69.10;;;;;;5062204;28;20484;-63
2022/12/25 11:12:26;;;;;;;4.60;3.00;;;8.50;69.20;;;;;;5060347;28;20181;-64
2022/12/25 11:14:58;;;;;;;6.30;3.00;;;8.50;69.40;;;;;;5063703;28;20216;-64
2022/12/25 11:17:25;;;;;;;4.43;3.00;;;8.60;69.10;;;;;;5053873;28;20189;-64
2022/12/25 11:19:53;;;;;;;3.80;3.10;;;8.70;68.90;;;;;;5060972;28;20202;-64
2022/12/25 11:22:19;;;;;;;4.43;3.00;;;8.80;68.30;;;;;;5050682;28;20441;-64
2022/12/25 11:24:44;;;;;;;3.50;2.80;;;8.90;68.00;;;;;;5057757;28;20226;-64
2022/12/25 11:27:27;;;;;;;5.80;2.50;;;8.90;68.50;;;;;;5059562;28;20186;-64
2022/12/25 11:30:00;;;;;;;2.80;2.43;;;9.00;67.80;;;;;;5060345;28;20186;-63
2022/12/25 11:32:54;;;;;;;4.00;2.80;;;9.00;68.10;;;;;;5069480;28;20285;-64
2022/12/25 11:35:23;;;;;;;5.50;2.80;;;9.00;66.80;;;;;;5063089;28;20198;-64
2022/12/25 11:37:53;;;;;;;5.23;3.40;;;9.20;67.10;;;;;;5073018;28;20185;-64
2022/12/25 11:40:37;;;;;;;3.30;2.53;;;9.20;66.80;;;;;;5065986;28;20212;-64
2022/12/25 11:43:13;;;;;;;4.03;2.93;;;9.20;66.60;;;;;;5077682;28;20215;-64
2022/12/25 11:46:03;;;;;;;6.43;2.73;;;9.40;66.00;;;;;;5054263;28;20466;-63
2022/12/25 11:48:35;;;;;;;5.40;2.37;;;9.50;65.50;;;;;;5074951;28;20197;-64
2022/12/25 11:51:04;;;;;;;3.13;2.40;;;9.60;65.00;;;;;;5069913;28;20182;-64
2022/12/25 11:53:30;;;;;;;5.77;3.40;;;9.70;65.00;;;;;;5070676;28;20242;-64
2022/12/25 11:56:27;;;;;;;5.07;2.67;;;9.80;64.10;;;;;;5062106;28;20259;-64
2022/12/25 11:59:05;;;;;;;3.63;2.23;;;10.00;63.80;;;;;;5072562;28;20269;-64
2022/12/25 12:02:07;;;;;;;4.33;2.63;;;10.00;64.20;;;;;;5072452;28;21717;-64
2022/12/25 12:04:46;;;;;;;3.50;2.90;;;10.10;64.30;;;;;;5025102;28;20224;-64
2022/12/25 12:07:22;;;;;;;8.33;3.00;;;10.20;63.70;;;;;;5069165;28;20182;-64
2022/12/25 12:10:02;;;;;;;4.93;2.80;;;10.30;63.10;;;;;;5068098;28;20189;-64
2022/12/25 12:12:47;;;;;;;7.57;3.10;;;10.30;63.50;;;;;;5083902;28;20186;-64
2022/12/25 12:15:42;;;;;;;6.37;4.10;;;10.40;63.60;;;;;;5070132;28;20186;-64
2022/12/25 12:18:31;;;;;;;5.53;4.40;;;10.50;63.50;;;;;;5060134;28;20201;-64
2022/12/25 12:21:02;;;;;;;6.30;4.57;;;10.70;62.80;;;;;;5073707;28;20213;-64
2022/12/25 12:23:49;;;;;;;9.40;4.80;;;10.80;63.40;;;;;;5065312;28;20179;-64
2022/12/25 12:26:20;;;;;;;7.03;4.90;;;10.90;63.00;;;;;;5072437;28;20185;-64
2022/12/25 12:28:48;;;;;;;5.00;4.07;;;11.00;62.90;;;;;;5071885;28;20254;-64
2022/12/25 12:31:14;;;;;;;8.70;5.67;;;11.10;63.20;;;;;;5058076;28;20312;-64
2022/12/25 12:33:48;;;;;;;6.70;4.97;;;11.10;61.80;;;;;;5044155;28;20209;-63
2022/12/25 12:36:15;;;;;;;8.80;5.43;;;11.10;61.70;;;;;;5071490;28;20177;-63
2022/12/25 12:38:42;;;;;;;8.40;5.00;;;11.20;62.80;;;;;;5073617;28;20194;-64
2022/12/25 12:41:11;;;;;;;8.27;4.93;;;11.30;61.60;;;;;;5054195;28;20309;-64
2022/12/25 12:43:38;;;;;;;10.40;5.00;;;11.30;61.40;;;;;;5047394;28;20203;-64
2022/12/25 12:46:15;;;;;;;7.30;4.57;;;11.40;61.40;;;;;;5062891;28;20187;-64
2022/12/25 12:48:44;;;;;;;6.87;5.03;;;11.50;60.40;;;;;;5070708;28;20182;-64
2022/12/25 12:51:30;;;;;;;8.50;4.97;;;11.50;60.30;;;;;;5072696;28;20716;-64
2022/12/25 12:54:23;;;;;;;6.60;5.43;;;11.60;60.30;;;;;;5068387;28;20186;-63
2022/12/25 12:57:20;;;;;;;6.73;4.37;;;11.60;59.90;;;;;;5071623;28;20190;-64
2022/12/25 12:59:46;;;;;;;6.17;4.47;;;11.70;60.80;;;;;;5059617;28;20186;-64
2022/12/25 13:02:15;;;;;;;7.30;5.10;;;11.70;60.30;;;;;;5069972;28;20557;-63
2022/12/25 13:05:13;;;;;;;8.53;5.23;;;11.90;60.20;;;;;;5071719;28;20202;-64
2022/12/25 13:08:09;;;;;;;7.47;5.63;;;11.90;59.70;;;;;;5035547;28;20200;-64
2022/12/25 13:10:39;;;;;;;10.63;5.57;;;12.00;59.40;;;;;;5068902;28;20182;-64
2022/12/25 13:13:32;;;;;;;9.53;5.47;;;12.00;59.20;;;;;;5070954;28;20269;-64
2022/12/25 13:15:58;;;;;;;7.13;5.77;;;12.00;58.90;;;;;;5065402;28;20191;-63
2022/12/25 13:18:24;;;;;;;9.57;6.30;;;12.00;59.40;;;;;;5055766;28;20184;-64
2022/12/25 13:21:04;;;;;;;10.77;6.77;;;12.00;60.40;;;;;;5072754;28;20276;-64
2022/12/25 13:23:33;;;;;;;9.57;6.50;;;12.00;60.20;;;;;;5072509;28;20193;-62
2022/12/25 13:26:02;;;;;;;12.17;6.57;;;12.10;59.90;;;;;;5061224;28;20548;-62
2022/12/25 13:28:33;;;;;;;7.73;5.33;;;12.10;60.70;;;;;;5069329;28;20277;-62
2022/12/25 13:31:19;;;;;;;9.70;6.27;;;12.20;60.80;;;;;;5070065;28;20194;-63
2022/12/25 13:34:06;;;;;;;8.00;5.70;;;12.10;60.50;;;;;;5081627;28;20186;-63
2022/12/25 13:36:38;;;;;;;10.73;5.80;;;12.10;60.60;;;;;;5059988;28;20197;-63
2022/12/25 13:39:08;;;;;;;11.00;6.33;;;12.00;61.20;;;;;;5052955;28;20236;-63
2022/12/25 13:44:29;;;;;;;6.50;5.63;;;11.90;61.50;;;;;;5073150;28;20358;-63
2022/12/25 13:46:55;;;;;;;10.67;6.80;;;11.90;62.30;;;;;;5068919;28;20324;-63
2022/12/25 13:49:23;;;;;;;9.30;6.47;;;11.90;62.30;;;;;;5067941;28;20264;-63
2022/12/25 13:51:50;;;;;;;7.87;6.13;;;11.90;61.60;;;;;;5063872;28;20190;-64
2022/12/25 13:54:17;;;;;;;8.17;6.13;;;11.80;62.30;;;;;;5053970;28;20193;-63
2022/12/25 13:56:49;;;;;;;10.37;6.53;;;11.70;62.30;;;;;;5073328;28;20237;-63
2022/12/25 13:59:18;;;;;;;7.27;6.57;;;11.70;62.50;;;;;;5068685;28;20216;-63
2022/12/25 14:01:45;;;;;;;9.40;6.17;;;11.60;63.20;;;;;;5077334;28;20268;-63
2022/12/25 14:04:20;;;;;;;7.40;6.40;;;11.50;63.90;;;;;;5069302;28;20192;-63
2022/12/25 14:06:47;;;;;;;8.67;7.03;;;11.40;63.80;;;;;;5083780;28;20177;-63
2022/12/25 14:09:13;;;;;;;10.27;6.07;;;11.30;64.40;;;;;;5054267;28;20185;-63
2022/12/25 14:11:50;;;;;;;10.43;6.63;;;11.10;65.70;;;;;;5074275;28;20193;-63
2022/12/25 14:14:24;;;;;;;8.90;6.40;;;11.10;66.10;;;;;;5082593;28;20208;-63
2022/12/25 14:16:53;;;;;;;8.33;6.63;;;11.10;66.70;;;;;;5059304;28;20224;-63
2022/12/25 14:19:27;;;;;;;9.23;6.13;;;11.10;66.50;;;;;;5067862;28;20182;-63
2022/12/25 14:22:03;;;;;;;8.53;6.97;;;11.00;67.00;;;;;;5075684;28;20202;-63
2022/12/25 14:24:30;;;;;;;9.33;7.00;;;10.80;67.20;;;;;;5067575;28;20178;-63
2022/12/25 14:27:01;;;;;;;9.97;7.23;;;10.70;67.20;;;;;;5097686;28;20190;-63
2022/12/25 14:29:41;;;;;;;7.43;6.47;;;10.60;67.50;;;;;;5071316;28;20302;-63
2022/12/25 14:32:15;;;;;;;7.50;5.67;;;10.50;67.90;;;;;;5093025;28;20203;-63
2022/12/25 14:34:45;;;;;;;7.87;6.67;;;10.50;68.20;;;;;;5074650;28;20189;-64
2022/12/25 14:37:16;;;;;;;8.23;6.03;;;10.40;68.20;;;;;;5068162;28;20673;-63
2022/12/25 14:39:46;;;;;;;8.57;6.23;;;10.40;68.50;;;;;;5086231;28;20206;-63
2022/12/25 14:42:21;;;;;;;9.73;6.60;;;10.30;68.40;;;;;;5085062;28;20262;-63
2022/12/25 14:44:58;;;;;;;7.37;5.87;;;10.30;68.50;;;;;;5067296;28;20189;-64
2022/12/25 14:47:25;;;;;;;8.23;6.57;;;10.20;68.90;;;;;;5070888;28;20186;-64
2022/12/25 14:49:53;;;;;;;8.00;6.80;;;10.10;69.10;;;;;;5057752;28;20185;-64
2022/12/25 14:52:24;;;;;;;8.80;6.23;;;10.10;69.50;;;;;;5073809;28;20185;-64
2022/12/25 14:55:06;;;;;;;6.60;5.87;;;10.00;69.70;;;;;;5082645;28;20185;-64
2022/12/25 14:57:48;;;;;;;6.63;5.63;;;10.00;69.90;;;;;;5069901;28;20212;-64